Time;durP1;ratioP1;P1;durP2;ratioP2;P2;SDS_P1;SDS_P2;PMS_P1;PMS_P2;Temp;Humidity;BMP_temperature;BMP_pressure;BME280_temperature;BME280_humidity;BME280_pressure;Samples;Min_cycle;Max_cycle;Signal;HPM_P1;HPM_P2
2021/03/31 00:01:12;;;;;;;4.10;3.17;;;13.80;64.90;;;;;;4991987;28;20233;-66
2021/03/31 00:03:38;;;;;;;4.93;4.20;;;13.70;64.70;;;;;;4983544;28;20234;-67
2021/03/31 00:06:04;;;;;;;5.60;4.27;;;13.70;64.60;;;;;;5003038;28;20258;-67
2021/03/31 00:08:33;;;;;;;4.90;3.20;;;13.60;65.00;;;;;;5023709;28;20888;-68
2021/03/31 00:11:00;;;;;;;4.90;4.40;;;13.60;64.40;;;;;;5016955;28;20211;-67
2021/03/31 00:13:26;;;;;;;6.23;3.90;;;13.60;65.00;;;;;;5008754;28;20854;-67
2021/03/31 00:15:54;;;;;;;4.40;3.90;;;13.50;64.80;;;;;;4998680;28;20456;-68
2021/03/31 00:18:21;;;;;;;5.03;3.27;;;13.50;65.00;;;;;;5009231;28;20217;-68
2021/03/31 00:20:47;;;;;;;6.67;4.50;;;13.50;64.90;;;;;;5033625;28;20455;-67
2021/03/31 00:23:15;;;;;;;5.43;3.87;;;13.40;64.60;;;;;;4996257;28;20468;-67
2021/03/31 00:25:42;;;;;;;7.23;4.27;;;13.40;65.00;;;;;;4998122;28;20491;-67
2021/03/31 00:28:12;;;;;;;5.30;4.30;;;13.40;65.10;;;;;;5015150;28;20459;-66
2021/03/31 00:30:38;;;;;;;5.10;3.70;;;13.30;65.20;;;;;;5023578;28;20485;-67
2021/03/31 00:33:04;;;;;;;6.83;3.77;;;13.30;65.00;;;;;;5052197;28;20497;-67
2021/03/31 00:35:30;;;;;;;5.47;4.03;;;13.30;65.30;;;;;;5031735;28;20473;-66
2021/03/31 00:37:56;;;;;;;5.53;3.80;;;13.30;66.20;;;;;;5007452;28;20450;-67
2021/03/31 00:40:30;;;;;;;4.30;3.73;;;13.20;65.20;;;;;;5043065;28;20763;-68
2021/03/31 00:42:56;;;;;;;5.10;4.10;;;13.20;65.50;;;;;;5022519;28;20252;-67
2021/03/31 00:45:21;;;;;;;6.83;4.53;;;13.10;65.10;;;;;;5021819;28;20534;-67
2021/03/31 00:47:47;;;;;;;4.83;4.40;;;13.10;65.10;;;;;;5010638;28;20555;-67
2021/03/31 00:50:16;;;;;;;5.87;3.40;;;13.10;65.00;;;;;;4976240;28;20236;-67
2021/03/31 00:52:43;;;;;;;6.63;4.10;;;13.00;65.20;;;;;;5010335;28;20212;-67
2021/03/31 00:55:13;;;;;;;3.90;3.50;;;13.00;65.40;;;;;;4999512;28;20466;-68
2021/03/31 00:57:40;;;;;;;5.33;3.90;;;13.00;65.40;;;;;;5034363;28;20454;-67
2021/03/31 01:00:08;;;;;;;12.23;5.10;;;13.00;65.50;;;;;;5019178;28;20462;-67
2021/03/31 01:02:35;;;;;;;7.17;4.30;;;12.90;65.60;;;;;;5036348;28;20450;-67
2021/03/31 01:05:01;;;;;;;5.77;4.27;;;12.90;65.60;;;;;;5047388;28;20470;-66
2021/03/31 01:07:27;;;;;;;6.60;3.50;;;12.90;66.80;;;;;;5021635;28;20459;-67
2021/03/31 01:09:54;;;;;;;4.73;3.50;;;12.90;66.10;;;;;;5029472;28;20450;-67
2021/03/31 01:12:58;;;;;;;5.70;3.77;;;12.90;66.60;;;;;;5019108;28;20239;-67
2021/03/31 01:15:31;;;;;;;4.43;3.60;;;12.80;66.10;;;;;;5025644;28;20475;-67
2021/03/31 01:18:21;;;;;;;4.63;4.00;;;12.80;66.50;;;;;;5036748;28;20458;-67
2021/03/31 01:21:02;;;;;;;6.20;3.47;;;12.70;66.50;;;;;;5046344;28;20446;-68
2021/03/31 01:23:33;;;;;;;6.30;3.77;;;12.70;66.40;;;;;;5021171;28;20466;-67
2021/03/31 01:26:07;;;;;;;5.83;4.60;;;12.70;66.80;;;;;;5024500;28;20805;-68
2021/03/31 01:28:44;;;;;;;4.93;4.27;;;12.70;66.70;;;;;;5013232;28;20578;-68
2021/03/31 01:31:30;;;;;;;5.60;3.70;;;12.70;66.70;;;;;;5032282;28;20446;-70
2021/03/31 01:34:29;;;;;;;4.60;3.73;;;12.60;67.00;;;;;;5011849;28;20452;-67
2021/03/31 01:36:56;;;;;;;6.17;3.60;;;12.60;66.90;;;;;;4992208;28;20463;-67
2021/03/31 01:39:23;;;;;;;6.00;4.10;;;12.50;66.70;;;;;;5003644;28;20451;-68
2021/03/31 01:41:51;;;;;;;9.53;4.33;;;12.50;66.60;;;;;;5017277;28;20477;-68
2021/03/31 01:44:20;;;;;;;5.23;3.40;;;12.50;66.60;;;;;;5024001;28;20525;-67
2021/03/31 01:46:53;;;;;;;5.77;4.30;;;12.40;66.40;;;;;;5032883;28;20455;-67
2021/03/31 01:49:21;;;;;;;4.77;4.00;;;12.40;66.50;;;;;;5012902;28;20475;-67
2021/03/31 01:51:48;;;;;;;4.50;3.90;;;12.40;66.70;;;;;;5009882;28;20463;-67
2021/03/31 01:54:16;;;;;;;6.10;4.00;;;12.30;66.80;;;;;;4994090;28;20467;-68
2021/03/31 01:56:43;;;;;;;7.93;4.13;;;12.30;67.00;;;;;;5028822;28;20554;-67
2021/03/31 01:59:09;;;;;;;5.77;4.33;;;12.30;67.20;;;;;;5007272;28;20987;-67
2021/03/31 02:01:35;;;;;;;9.23;5.20;;;12.30;67.20;;;;;;5002347;28;20467;-68
2021/03/31 02:04:01;;;;;;;10.63;5.43;;;12.20;66.70;;;;;;5003673;28;20472;-68
2021/03/31 02:06:30;;;;;;;8.97;4.77;;;12.20;66.80;;;;;;5006599;28;20220;-67
2021/03/31 02:08:57;;;;;;;8.70;4.63;;;12.20;67.00;;;;;;4997151;28;20538;-67
2021/03/31 02:11:26;;;;;;;6.77;4.20;;;12.10;67.50;;;;;;5031069;28;20451;-68
2021/03/31 02:13:53;;;;;;;4.90;3.80;;;12.10;67.20;;;;;;5016805;28;20456;-69
2021/03/31 02:16:19;;;;;;;4.60;3.97;;;12.00;67.00;;;;;;5014381;28;20487;-68
2021/03/31 02:18:45;;;;;;;5.10;3.83;;;12.00;67.10;;;;;;5003428;28;20453;-68
2021/03/31 02:21:13;;;;;;;5.83;4.70;;;12.00;67.10;;;;;;5009607;28;20459;-67
2021/03/31 02:23:41;;;;;;;7.50;5.27;;;12.00;67.80;;;;;;5022501;28;20475;-67
2021/03/31 02:26:07;;;;;;;5.47;3.90;;;11.90;67.10;;;;;;5017405;28;20464;-68
2021/03/31 02:28:34;;;;;;;5.77;4.00;;;11.90;67.40;;;;;;5004199;28;20554;-68
2021/03/31 02:30:59;;;;;;;5.77;4.57;;;11.90;67.20;;;;;;5027795;28;20509;-66
2021/03/31 02:33:28;;;;;;;5.30;4.10;;;11.80;67.80;;;;;;4972819;28;20887;-68
2021/03/31 02:35:54;;;;;;;5.80;3.90;;;11.80;67.60;;;;;;4990367;28;20233;-67
2021/03/31 02:38:21;;;;;;;7.60;4.60;;;11.80;67.30;;;;;;4993859;28;21053;-67
2021/03/31 02:40:49;;;;;;;4.80;3.60;;;11.80;67.60;;;;;;4966379;28;20464;-69
2021/03/31 02:43:17;;;;;;;6.70;3.90;;;11.70;67.40;;;;;;5034406;28;20483;-67
2021/03/31 02:45:47;;;;;;;4.87;4.10;;;11.70;67.60;;;;;;5027853;28;20501;-68
2021/03/31 02:48:15;;;;;;;5.03;4.00;;;11.70;67.40;;;;;;5010566;28;20463;-67
2021/03/31 02:50:41;;;;;;;6.37;4.37;;;11.70;67.70;;;;;;5016328;28;20500;-69
2021/03/31 02:53:08;;;;;;;5.33;3.90;;;11.60;67.60;;;;;;5011859;28;20491;-69
2021/03/31 02:55:37;;;;;;;4.13;3.47;;;11.60;68.10;;;;;;4998901;28;20977;-69
2021/03/31 02:58:03;;;;;;;5.60;3.70;;;11.60;68.10;;;;;;4993751;28;20456;-70
2021/03/31 03:00:29;;;;;;;4.93;3.93;;;11.50;68.10;;;;;;5014614;28;20460;-68
2021/03/31 03:02:56;;;;;;;6.40;4.20;;;11.50;68.40;;;;;;5027584;28;20455;-69
2021/03/31 03:05:22;;;;;;;5.20;3.47;;;11.50;68.50;;;;;;5011452;28;20461;-69
2021/03/31 03:07:49;;;;;;;5.70;3.87;;;11.50;68.80;;;;;;5048499;28;20800;-68
2021/03/31 03:10:15;;;;;;;4.33;3.60;;;11.50;68.90;;;;;;5005352;28;20460;-70
2021/03/31 03:12:47;;;;;;;4.07;3.40;;;11.50;68.80;;;;;;5019416;28;21050;-69
2021/03/31 03:15:17;;;;;;;5.37;3.50;;;11.40;68.60;;;;;;5003524;28;20531;-69
2021/03/31 03:17:43;;;;;;;4.23;3.83;;;11.40;68.60;;;;;;5006300;28;20959;-70
2021/03/31 03:20:10;;;;;;;5.77;4.27;;;11.40;68.60;;;;;;5011626;28;20454;-69
2021/03/31 03:22:38;;;;;;;7.77;4.47;;;11.30;68.00;;;;;;5000456;28;20211;-68
2021/03/31 03:25:08;;;;;;;5.93;3.57;;;11.30;68.10;;;;;;4992054;28;20580;-71
2021/03/31 03:27:36;;;;;;;6.20;3.60;;;11.30;68.60;;;;;;4986724;28;20489;-70
2021/03/31 03:30:04;;;;;;;7.90;4.27;;;11.30;68.50;;;;;;5001018;28;20464;-70
2021/03/31 03:32:30;;;;;;;7.23;3.67;;;11.20;68.30;;;;;;5007405;28;20522;-71
2021/03/31 03:34:57;;;;;;;7.20;4.03;;;11.20;68.40;;;;;;4988086;28;20459;-70
2021/03/31 03:37:22;;;;;;;9.80;4.97;;;11.20;68.50;;;;;;5002960;28;20468;-72
2021/03/31 03:39:48;;;;;;;5.37;3.80;;;11.20;68.60;;;;;;5000962;28;20455;-69
2021/03/31 03:42:14;;;;;;;5.43;3.80;;;11.20;68.50;;;;;;5001188;28;20209;-69
2021/03/31 03:44:40;;;;;;;7.03;3.67;;;11.10;68.30;;;;;;4989519;28;20649;-70
2021/03/31 03:47:07;;;;;;;5.27;3.70;;;11.10;68.20;;;;;;4982019;28;20634;-70
2021/03/31 03:49:37;;;;;;;4.90;3.37;;;11.10;68.90;;;;;;5012169;28;20529;-69
2021/03/31 03:52:07;;;;;;;4.77;4.30;;;11.10;69.80;;;;;;5020028;28;20466;-68
2021/03/31 03:54:33;;;;;;;7.00;4.03;;;11.00;69.00;;;;;;5012979;28;20471;-69
2021/03/31 03:56:58;;;;;;;4.70;3.80;;;11.00;69.10;;;;;;4996089;28;20464;-68
2021/03/31 03:59:28;;;;;;;5.63;3.80;;;11.00;68.90;;;;;;4997148;28;20471;-70
2021/03/31 04:01:54;;;;;;;7.00;4.67;;;10.90;68.60;;;;;;5022858;28;20223;-70
2021/03/31 04:04:21;;;;;;;4.53;3.73;;;10.90;68.80;;;;;;5011572;28;20528;-69
2021/03/31 04:06:47;;;;;;;6.37;4.10;;;10.90;68.90;;;;;;5038300;28;20451;-69
2021/03/31 04:09:13;;;;;;;6.40;4.30;;;10.80;69.10;;;;;;5015923;28;20461;-69
2021/03/31 04:11:43;;;;;;;5.37;3.63;;;10.90;69.60;;;;;;5039068;28;20227;-69
2021/03/31 04:14:09;;;;;;;7.07;4.10;;;10.80;69.50;;;;;;5017087;28;20539;-70
2021/03/31 04:16:36;;;;;;;6.07;3.73;;;10.80;69.60;;;;;;5000470;28;21040;-70
2021/03/31 04:19:07;;;;;;;6.07;4.30;;;10.80;70.00;;;;;;4998460;28;20465;-69
2021/03/31 04:21:34;;;;;;;5.37;4.33;;;10.80;69.50;;;;;;5012036;28;20582;-69
2021/03/31 04:24:01;;;;;;;6.37;4.53;;;10.70;69.20;;;;;;5033639;28;20466;-69
2021/03/31 04:26:29;;;;;;;7.40;4.13;;;10.70;69.40;;;;;;4979193;28;20460;-69
2021/03/31 04:28:55;;;;;;;5.27;3.90;;;10.60;69.80;;;;;;5015568;28;20546;-69
2021/03/31 04:31:23;;;;;;;6.10;4.37;;;10.60;69.70;;;;;;5015248;28;20451;-69
2021/03/31 04:33:52;;;;;;;5.63;4.90;;;10.60;69.60;;;;;;5016429;28;20489;-69
2021/03/31 04:36:19;;;;;;;5.43;4.30;;;10.60;69.80;;;;;;5009309;28;20488;-70
2021/03/31 04:38:47;;;;;;;5.37;4.20;;;10.50;69.70;;;;;;5010502;28;20513;-72
2021/03/31 04:41:13;;;;;;;8.70;4.97;;;10.50;69.90;;;;;;5008785;28;20491;-69
2021/03/31 04:43:39;;;;;;;5.70;4.60;;;10.50;70.10;;;;;;5008854;28;20476;-69
2021/03/31 04:46:08;;;;;;;5.70;4.20;;;10.50;70.20;;;;;;5026476;28;20499;-69
2021/03/31 04:48:35;;;;;;;4.60;4.10;;;10.40;70.30;;;;;;5030168;28;20246;-69
2021/03/31 04:51:00;;;;;;;6.80;4.23;;;10.40;70.50;;;;;;5010816;28;20539;-69
2021/03/31 04:53:26;;;;;;;6.53;5.00;;;10.40;70.30;;;;;;5035176;28;20534;-68
2021/03/31 04:55:52;;;;;;;8.30;4.80;;;10.30;70.40;;;;;;4979588;28;20300;-70
2021/03/31 04:58:17;;;;;;;6.47;4.17;;;10.20;70.40;;;;;;5011647;28;20322;-68
2021/03/31 05:00:43;;;;;;;5.50;3.97;;;10.20;70.50;;;;;;5037830;28;20651;-69
2021/03/31 05:03:09;;;;;;;8.07;4.70;;;10.30;70.50;;;;;;5007290;28;20226;-69
2021/03/31 05:05:34;;;;;;;6.80;4.37;;;10.30;70.30;;;;;;5029695;28;20227;-68
2021/03/31 05:08:00;;;;;;;6.90;4.77;;;10.30;70.20;;;;;;5036430;28;20208;-69
2021/03/31 05:10:26;;;;;;;7.40;4.50;;;10.20;70.10;;;;;;4991505;28;20222;-69
2021/03/31 05:12:55;;;;;;;6.23;4.03;;;10.20;70.10;;;;;;5019665;28;20232;-70
2021/03/31 05:15:21;;;;;;;10.70;5.10;;;10.20;70.60;;;;;;4969168;28;20533;-68
2021/03/31 05:17:47;;;;;;;4.30;3.77;;;10.20;70.80;;;;;;4986842;28;20893;-69
2021/03/31 05:20:13;;;;;;;8.43;4.60;;;10.20;70.90;;;;;;5025942;28;20537;-70
2021/03/31 05:22:39;;;;;;;6.90;4.30;;;10.10;70.80;;;;;;5031943;28;20224;-69
2021/03/31 05:25:07;;;;;;;15.27;7.40;;;10.20;71.10;;;;;;5030842;28;20475;-69
2021/03/31 05:27:33;;;;;;;12.43;6.70;;;10.20;71.00;;;;;;4992948;28;20217;-69
2021/03/31 05:30:00;;;;;;;11.00;5.93;;;10.20;71.00;;;;;;4982420;28;20974;-69
2021/03/31 05:32:25;;;;;;;9.43;6.33;;;10.00;71.60;;;;;;5012973;28;20482;-68
2021/03/31 05:34:52;;;;;;;7.40;4.97;;;10.00;71.30;;;;;;5021439;28;20945;-69
2021/03/31 05:37:18;;;;;;;6.60;5.37;;;10.10;71.40;;;;;;5012195;28;20240;-69
2021/03/31 05:39:43;;;;;;;10.43;5.27;;;10.00;71.30;;;;;;5011336;28;20506;-68
2021/03/31 05:42:09;;;;;;;7.87;4.90;;;10.10;71.40;;;;;;5004439;28;20220;-69
2021/03/31 05:44:37;;;;;;;6.23;4.60;;;10.00;71.30;;;;;;5012340;28;20641;-70
2021/03/31 05:47:09;;;;;;;6.43;4.63;;;10.10;71.60;;;;;;5025409;28;20459;-69
2021/03/31 05:49:35;;;;;;;9.47;5.97;;;10.10;71.70;;;;;;5019477;28;20464;-69
2021/03/31 05:52:01;;;;;;;7.60;5.90;;;10.00;71.20;;;;;;5014623;28;20482;-70
2021/03/31 05:54:27;;;;;;;6.73;4.87;;;10.00;71.20;;;;;;5039125;28;20460;-71
2021/03/31 05:56:53;;;;;;;8.00;5.70;;;10.00;71.30;;;;;;5018616;28;20703;-69
2021/03/31 05:59:20;;;;;;;8.70;4.97;;;10.00;71.50;;;;;;5050730;28;20223;-70
2021/03/31 06:01:47;;;;;;;7.47;5.00;;;10.00;71.60;;;;;;4993717;28;20510;-70
2021/03/31 06:04:16;;;;;;;8.77;5.17;;;10.00;71.90;;;;;;5041926;28;20466;-68
2021/03/31 06:06:41;;;;;;;6.13;4.70;;;9.90;73.90;;;;;;5020980;28;20452;-68
2021/03/31 06:09:08;;;;;;;8.93;5.50;;;9.90;73.80;;;;;;5031284;28;20489;-70
2021/03/31 06:12:07;;;;;;;12.53;6.40;;;9.90;74.00;;;;;;5004665;28;20311;-69
2021/03/31 06:14:37;;;;;;;9.50;6.00;;;9.90;74.00;;;;;;5038080;28;20526;-68
2021/03/31 06:17:15;;;;;;;8.40;5.97;;;10.00;72.60;;;;;;5006858;28;20539;-69
2021/03/31 06:19:43;;;;;;;9.90;5.80;;;10.00;72.90;;;;;;4993745;28;20452;-69
2021/03/31 06:25:08;;;;;;;8.30;5.70;;;10.00;73.60;;;;;;5010820;28;20460;-70
2021/03/31 06:27:34;;;;;;;8.47;5.40;;;10.00;73.50;;;;;;5037636;28;20624;-68
2021/03/31 06:30:05;;;;;;;8.17;5.40;;;10.00;73.60;;;;;;5017938;28;20470;-68
2021/03/31 06:32:39;;;;;;;7.83;5.23;;;10.00;73.70;;;;;;5013120;28;20227;-68
2021/03/31 06:35:07;;;;;;;9.40;5.70;;;10.10;73.90;;;;;;5007191;28;20544;-69
2021/03/31 06:37:36;;;;;;;10.30;6.60;;;10.10;74.00;;;;;;5038147;28;20490;-71
2021/03/31 06:40:07;;;;;;;6.50;4.67;;;10.10;74.20;;;;;;4994062;28;21000;-69
2021/03/31 06:42:40;;;;;;;7.50;5.33;;;10.10;74.20;;;;;;5010681;28;20479;-68
2021/03/31 06:45:13;;;;;;;13.83;4.57;;;10.10;74.30;;;;;;4979316;28;20977;-69
2021/03/31 06:48:00;;;;;;;6.60;4.40;;;10.10;74.30;;;;;;5007942;28;20455;-69
2021/03/31 06:50:25;;;;;;;6.70;4.70;;;10.10;74.40;;;;;;5047334;28;21006;-69
2021/03/31 06:52:56;;;;;;;8.60;5.17;;;10.20;74.90;;;;;;5022050;28;20467;-70
2021/03/31 06:55:27;;;;;;;9.47;4.93;;;10.20;75.80;;;;;;5020765;28;20353;-68
2021/03/31 06:57:55;;;;;;;7.10;5.33;;;10.20;75.80;;;;;;5013965;28;20447;-68
2021/03/31 07:00:26;;;;;;;9.00;5.10;;;10.30;76.50;;;;;;5021255;28;20477;-69
2021/03/31 07:02:53;;;;;;;8.40;6.10;;;10.30;77.10;;;;;;5018454;28;20456;-69
2021/03/31 07:05:20;;;;;;;15.40;6.43;;;10.30;77.00;;;;;;5010918;28;20477;-68
2021/03/31 07:07:46;;;;;;;15.83;8.13;;;10.40;77.60;;;;;;5023416;28;20450;-70
2021/03/31 07:10:17;;;;;;;9.50;6.87;;;10.40;77.50;;;;;;5026545;28;20469;-69
2021/03/31 07:12:47;;;;;;;15.20;8.13;;;10.50;78.20;;;;;;5010315;28;20235;-71
2021/03/31 07:15:15;;;;;;;15.40;9.07;;;10.50;79.20;;;;;;5005279;28;20464;-69
2021/03/31 07:17:46;;;;;;;11.13;7.47;;;10.60;79.60;;;;;;4996249;28;20582;-68
2021/03/31 07:20:12;;;;;;;11.13;7.67;;;10.60;79.60;;;;;;4993495;28;20467;-68
2021/03/31 07:22:38;;;;;;;12.57;7.73;;;10.70;80.30;;;;;;5034765;28;20455;-68
2021/03/31 07:25:05;;;;;;;9.17;6.40;;;10.70;80.10;;;;;;5003332;28;20542;-69
2021/03/31 07:27:33;;;;;;;11.33;6.20;;;10.80;79.80;;;;;;5037330;28;20454;-70
2021/03/31 07:30:10;;;;;;;10.50;6.93;;;10.80;80.20;;;;;;4999849;28;20460;-70
2021/03/31 07:33:24;;;;;;;9.30;6.63;;;10.90;80.10;;;;;;5009123;28;20494;-69
2021/03/31 07:35:51;;;;;;;12.87;7.30;;;10.90;81.40;;;;;;5017801;28;20442;-70
2021/03/31 07:38:19;;;;;;;13.07;7.90;;;11.00;81.80;;;;;;5020328;28;20470;-69
2021/03/31 07:40:51;;;;;;;17.07;8.73;;;11.10;82.50;;;;;;5020793;28;20467;-69
2021/03/31 07:43:46;;;;;;;10.53;7.00;;;11.20;83.20;;;;;;4977647;28;20455;-69
2021/03/31 07:46:15;;;;;;;15.60;9.20;;;11.30;83.80;;;;;;5009926;28;20475;-68
2021/03/31 07:48:43;;;;;;;12.63;7.80;;;11.40;84.00;;;;;;4994783;28;20459;-68
2021/03/31 07:51:19;;;;;;;9.33;6.73;;;11.50;84.50;;;;;;5009598;28;20487;-69
2021/03/31 07:53:49;;;;;;;9.07;6.10;;;11.60;85.30;;;;;;5032961;28;20438;-69
2021/03/31 07:56:24;;;;;;;9.17;7.20;;;11.70;85.10;;;;;;5005995;28;20458;-69
2021/03/31 07:59:02;;;;;;;11.20;7.30;;;11.80;85.70;;;;;;5022228;28;20577;-69
2021/03/31 08:01:47;;;;;;;9.60;6.30;;;11.90;85.50;;;;;;5032560;28;20450;-69
2021/03/31 08:04:15;;;;;;;11.23;5.70;;;12.00;85.80;;;;;;5028458;28;20542;-68
2021/03/31 08:06:43;;;;;;;8.50;6.47;;;12.10;85.50;;;;;;5032428;28;20462;-69
2021/03/31 08:09:22;;;;;;;10.50;5.30;;;12.20;85.80;;;;;;5009772;28;20507;-69
2021/03/31 08:12:03;;;;;;;6.73;5.40;;;12.30;85.60;;;;;;5028804;28;20455;-69
2021/03/31 08:14:30;;;;;;;8.90;5.53;;;12.40;85.60;;;;;;5024802;28;20475;-70
2021/03/31 08:17:02;;;;;;;6.93;4.33;;;12.50;85.80;;;;;;5011932;28;20461;-69
2021/03/31 08:19:51;;;;;;;7.77;5.10;;;12.60;85.70;;;;;;5009730;28;20476;-72
2021/03/31 08:22:32;;;;;;;9.23;5.67;;;12.70;86.00;;;;;;5016805;28;20854;-69
2021/03/31 08:25:00;;;;;;;12.63;6.53;;;12.80;86.70;;;;;;5011146;28;20463;-72
2021/03/31 08:27:30;;;;;;;13.67;7.47;;;13.00;87.20;;;;;;5019899;28;21139;-69
2021/03/31 08:29:59;;;;;;;7.17;5.07;;;13.20;87.10;;;;;;5028955;28;20865;-72
2021/03/31 08:32:26;;;;;;;9.70;6.33;;;13.30;87.30;;;;;;5022586;28;20462;-69
2021/03/31 08:34:53;;;;;;;6.97;5.70;;;13.40;87.00;;;;;;5013506;28;20452;-70
2021/03/31 08:37:29;;;;;;;8.73;5.80;;;13.50;87.20;;;;;;5038545;28;21028;-69
2021/03/31 08:40:04;;;;;;;7.60;5.20;;;13.60;87.30;;;;;;5048295;28;20458;-68
2021/03/31 08:42:30;;;;;;;10.33;6.30;;;13.70;87.20;;;;;;5021059;28;20972;-70
2021/03/31 08:44:58;;;;;;;8.53;5.87;;;13.80;88.50;;;;;;5034478;28;20470;-69
2021/03/31 08:47:30;;;;;;;6.90;5.90;;;13.90;87.50;;;;;;5028382;28;20284;-68
2021/03/31 08:50:07;;;;;;;9.60;6.10;;;14.00;87.50;;;;;;5027547;28;20445;-65
2021/03/31 08:52:34;;;;;;;10.90;6.57;;;14.00;87.60;;;;;;5032915;28;20471;-66
2021/03/31 08:55:04;;;;;;;8.27;5.87;;;14.20;88.20;;;;;;5032638;28;20482;-66
2021/03/31 08:57:30;;;;;;;14.33;6.47;;;14.30;88.60;;;;;;4999030;28;20460;-66
2021/03/31 08:59:58;;;;;;;11.60;6.80;;;14.50;89.00;;;;;;5023647;28;20493;-67
2021/03/31 09:02:29;;;;;;;9.60;6.20;;;14.60;89.00;;;;;;5039133;28;20466;-66
2021/03/31 09:04:56;;;;;;;7.43;5.27;;;14.70;88.30;;;;;;5033733;28;20462;-67
2021/03/31 09:07:23;;;;;;;9.47;5.87;;;14.80;88.30;;;;;;5021012;28;20837;-68
2021/03/31 09:09:49;;;;;;;8.83;5.50;;;14.90;88.60;;;;;;5033495;28;20517;-66
2021/03/31 09:12:17;;;;;;;7.37;6.27;;;15.00;88.60;;;;;;4992021;28;20515;-67
2021/03/31 09:14:55;;;;;;;8.07;6.07;;;15.10;88.60;;;;;;5035988;28;20511;-67
2021/03/31 09:17:26;;;;;;;10.57;6.73;;;15.20;88.80;;;;;;5029876;28;20550;-68
2021/03/31 09:19:54;;;;;;;10.60;7.30;;;15.30;88.80;;;;;;5013231;28;20450;-68
2021/03/31 09:22:27;;;;;;;8.00;5.70;;;15.40;87.90;;;;;;5017583;28;20458;-66
2021/03/31 09:24:57;;;;;;;9.73;6.00;;;15.50;89.00;;;;;;5032593;28;20459;-67
2021/03/31 09:27:25;;;;;;;10.10;6.40;;;15.70;89.50;;;;;;5002758;28;20472;-66
2021/03/31 09:29:56;;;;;;;10.17;7.23;;;15.90;89.10;;;;;;5012152;28;20456;-68
2021/03/31 09:32:28;;;;;;;13.27;6.80;;;16.00;89.50;;;;;;5002513;28;20988;-66
2021/03/31 09:34:54;;;;;;;10.67;7.20;;;16.10;89.30;;;;;;5018592;28;20894;-67
2021/03/31 09:37:19;;;;;;;9.80;6.50;;;16.30;89.50;;;;;;5013392;28;20460;-69
2021/03/31 09:39:54;;;;;;;9.40;7.87;;;16.40;89.20;;;;;;5024801;28;20227;-67
2021/03/31 09:42:31;;;;;;;11.97;6.40;;;16.50;89.10;;;;;;5030204;28;20288;-68
2021/03/31 09:44:58;;;;;;;14.77;7.97;;;16.60;88.60;;;;;;5029397;28;20454;-67
2021/03/31 09:47:28;;;;;;;9.00;6.57;;;16.60;88.90;;;;;;5028399;28;20455;-67
2021/03/31 09:49:54;;;;;;;12.40;7.50;;;16.70;88.90;;;;;;5014851;28;20979;-68
2021/03/31 09:52:28;;;;;;;11.13;7.67;;;16.90;89.10;;;;;;5032212;28;20462;-67
2021/03/31 09:55:10;;;;;;;11.80;6.83;;;16.90;88.90;;;;;;5026839;28;20520;-67
2021/03/31 09:57:38;;;;;;;8.87;6.97;;;17.10;88.40;;;;;;5034395;28;20496;-66
2021/03/31 10:00:07;;;;;;;10.50;7.27;;;17.20;88.80;;;;;;5047144;28;20563;-67
2021/03/31 10:02:40;;;;;;;12.93;7.13;;;17.30;88.20;;;;;;5039406;28;20463;-71
2021/03/31 10:05:14;;;;;;;11.57;7.50;;;17.40;88.80;;;;;;5031104;28;20493;-67
2021/03/31 10:07:39;;;;;;;10.67;7.77;;;17.60;87.70;;;;;;5037322;28;20462;-67
2021/03/31 10:10:07;;;;;;;16.13;7.60;;;17.70;88.00;;;;;;4998317;28;20448;-66
2021/03/31 10:12:34;;;;;;;16.23;8.53;;;17.80;87.80;;;;;;5037112;28;20270;-69
2021/03/31 10:15:04;;;;;;;10.27;7.47;;;17.80;87.50;;;;;;5020564;28;20451;-69
2021/03/31 10:17:32;;;;;;;13.40;8.03;;;17.80;87.20;;;;;;5030530;28;20451;-69
2021/03/31 10:20:16;;;;;;;12.17;8.87;;;18.00;87.70;;;;;;5002541;28;20451;-69
2021/03/31 10:22:42;;;;;;;12.30;8.30;;;18.30;87.80;;;;;;5034312;28;20439;-70
2021/03/31 10:25:25;;;;;;;13.73;9.23;;;18.40;86.40;;;;;;5025487;28;20463;-69
2021/03/31 10:27:50;;;;;;;15.07;9.70;;;18.50;86.60;;;;;;5036051;28;20223;-70
2021/03/31 10:30:25;;;;;;;14.00;8.87;;;18.50;85.50;;;;;;5026671;28;20800;-69
2021/03/31 10:32:52;;;;;;;12.20;9.00;;;18.50;86.00;;;;;;5010376;28;20718;-69
2021/03/31 10:35:39;;;;;;;15.63;9.27;;;18.60;85.90;;;;;;4988778;28;20839;-70
2021/03/31 10:38:08;;;;;;;11.90;8.60;;;18.80;86.20;;;;;;5006010;28;20458;-69
2021/03/31 10:41:09;;;;;;;18.83;10.20;;;18.90;86.10;;;;;;5003929;28;20537;-70
2021/03/31 10:52:35;;;;;;;16.20;8.83;;;19.40;85.10;;;;;;4966990;28;20832;-69
2021/03/31 10:55:01;;;;;;;16.60;9.10;;;19.60;85.20;;;;;;5005576;28;20456;-69
2021/03/31 10:57:26;;;;;;;15.77;9.50;;;19.80;85.00;;;;;;4990291;28;20452;-70
2021/03/31 10:59:52;;;;;;;15.00;9.97;;;20.00;83.80;;;;;;5013373;28;20685;-69
2021/03/31 11:02:17;;;;;;;16.77;9.93;;;20.10;84.80;;;;;;5007946;28;20205;-70
2021/03/31 11:04:44;;;;;;;17.37;10.27;;;20.10;84.20;;;;;;5009460;28;20303;-70
2021/03/31 11:07:10;;;;;;;22.27;12.00;;;20.20;85.00;;;;;;5014292;28;20315;-71
2021/03/31 11:09:39;;;;;;;21.47;11.00;;;20.30;84.00;;;;;;4986849;28;20482;-69
2021/03/31 11:12:06;;;;;;;19.50;11.73;;;20.30;82.80;;;;;;5002516;28;20474;-69
2021/03/31 11:14:32;;;;;;;13.90;9.23;;;20.40;83.40;;;;;;4989292;28;21008;-71
2021/03/31 11:17:02;;;;;;;17.07;10.93;;;20.40;83.70;;;;;;5007883;28;20460;-69
2021/03/31 11:27:15;;;;;;;22.40;10.80;;;20.70;82.90;;;;;;5012286;28;20464;-69
2021/03/31 11:29:40;;;;;;;14.93;10.00;;;20.80;83.10;;;;;;4981665;28;20455;-69
2021/03/31 11:32:06;;;;;;;16.30;11.73;;;21.00;83.10;;;;;;5004850;28;20213;-70
2021/03/31 11:34:32;;;;;;;16.60;9.80;;;21.20;82.70;;;;;;5004120;28;20221;-70
2021/03/31 11:36:58;;;;;;;15.40;10.37;;;21.30;82.40;;;;;;5010082;28;20349;-71
2021/03/31 11:39:23;;;;;;;16.07;9.07;;;21.40;82.30;;;;;;5008023;28;20224;-69
2021/03/31 11:41:49;;;;;;;17.77;11.17;;;21.40;81.70;;;;;;4986235;28;20229;-70
2021/03/31 11:44:15;;;;;;;21.13;10.90;;;21.50;81.50;;;;;;4983878;28;20229;-69
2021/03/31 11:46:41;;;;;;;22.07;12.53;;;21.70;81.20;;;;;;4999437;28;20315;-71
2021/03/31 11:49:07;;;;;;;18.40;12.10;;;21.80;80.10;;;;;;5015954;28;20554;-71
2021/03/31 11:51:33;;;;;;;16.83;10.00;;;21.80;80.10;;;;;;4998120;28;20278;-71
2021/03/31 11:53:58;;;;;;;14.77;10.53;;;21.90;80.80;;;;;;5045373;28;20216;-69
2021/03/31 11:56:24;;;;;;;17.20;10.50;;;22.00;80.80;;;;;;5024320;28;20219;-68
2021/03/31 11:58:51;;;;;;;15.17;10.80;;;22.20;80.40;;;;;;4983325;28;20220;-70
2021/03/31 12:01:16;;;;;;;14.13;9.97;;;22.30;80.00;;;;;;5027980;28;20298;-70
2021/03/31 12:03:42;;;;;;;17.70;11.20;;;22.30;80.00;;;;;;5025350;28;20898;-69
2021/03/31 12:06:08;;;;;;;15.83;10.30;;;22.30;79.70;;;;;;5018052;28;20228;-68
2021/03/31 12:08:33;;;;;;;16.83;9.53;;;22.40;80.70;;;;;;5007516;28;20216;-67
2021/03/31 12:10:59;;;;;;;14.70;10.27;;;22.60;79.50;;;;;;5011680;28;20707;-68
2021/03/31 12:13:25;;;;;;;17.03;11.07;;;22.60;79.40;;;;;;4992152;28;20294;-67
2021/03/31 12:15:50;;;;;;;18.13;11.93;;;22.70;78.80;;;;;;5011949;28;20248;-68
2021/03/31 12:18:16;;;;;;;15.37;10.70;;;22.70;79.10;;;;;;5003669;28;20706;-68
2021/03/31 12:20:42;;;;;;;18.47;11.07;;;22.70;78.90;;;;;;5006803;28;20216;-67
2021/03/31 12:23:07;;;;;;;16.93;10.20;;;22.80;78.20;;;;;;5012398;28;20247;-68
2021/03/31 12:25:34;;;;;;;16.63;11.50;;;23.10;77.90;;;;;;4992565;28;20235;-67
2021/03/31 12:28:01;;;;;;;16.63;11.10;;;23.20;77.40;;;;;;5007937;28;20240;-67
2021/03/31 12:30:28;;;;;;;16.47;9.97;;;23.30;76.20;;;;;;5016527;28;20937;-69
2021/03/31 12:32:54;;;;;;;18.37;10.30;;;23.50;76.10;;;;;;5027438;28;20477;-67
2021/03/31 12:35:21;;;;;;;17.97;12.33;;;23.70;76.30;;;;;;4991995;28;20836;-67
2021/03/31 12:37:47;;;;;;;19.10;11.50;;;23.90;75.90;;;;;;5026458;28;20231;-69
2021/03/31 12:40:13;;;;;;;16.83;10.77;;;23.90;75.30;;;;;;5026824;28;20462;-67
2021/03/31 12:42:39;;;;;;;14.30;8.87;;;23.80;76.10;;;;;;5041829;28;20319;-67
2021/03/31 12:45:06;;;;;;;20.23;10.87;;;23.70;75.90;;;;;;5034899;28;21058;-67
2021/03/31 12:47:34;;;;;;;15.33;9.63;;;23.70;75.70;;;;;;5021459;28;20486;-68
2021/03/31 12:50:01;;;;;;;18.70;10.90;;;23.70;76.30;;;;;;5001904;28;20844;-67
2021/03/31 12:52:35;;;;;;;17.93;10.80;;;23.60;75.50;;;;;;5012350;28;20459;-69
2021/03/31 12:55:04;;;;;;;14.57;9.87;;;23.50;73.90;;;;;;4996793;28;20458;-68
2021/03/31 12:57:35;;;;;;;16.50;10.30;;;23.70;75.30;;;;;;5010981;28;20450;-71
2021/03/31 13:00:03;;;;;;;16.40;8.30;;;23.90;76.00;;;;;;5012012;28;20461;-67
2021/03/31 13:02:30;;;;;;;18.63;10.40;;;23.90;74.20;;;;;;5011356;28;20971;-68
2021/03/31 13:04:56;;;;;;;13.63;9.03;;;23.90;74.70;;;;;;5001572;28;20468;-69
2021/03/31 13:07:22;;;;;;;16.03;9.87;;;24.00;75.50;;;;;;4988901;28;20460;-69
2021/03/31 13:09:48;;;;;;;12.70;8.87;;;24.10;74.30;;;;;;5016243;28;20224;-68
2021/03/31 13:12:32;;;;;;;17.07;10.23;;;24.20;76.10;;;;;;4998905;28;20598;-69